createdAt,value
2022-12-11T00:00:24.780Z,33.2
2022-12-11T00:01:26.529Z,33.1
2022-12-11T00:02:28.261Z,33.2
2022-12-11T00:03:30.488Z,33.2
2022-12-11T00:04:32.491Z,33.1
2022-12-11T00:05:34.483Z,33.1
2022-12-11T00:06:36.148Z,33.2
2022-12-11T00:07:37.819Z,33.2
2022-12-11T00:08:39.684Z,33.2
2022-12-11T00:09:41.420Z,33.2
2022-12-11T00:10:43.192Z,33.2
2022-12-11T00:11:45.140Z,33.2
2022-12-11T00:12:46.887Z,33.2
2022-12-11T00:13:48.697Z,33.2
2022-12-11T00:14:50.472Z,33.2
2022-12-11T00:15:52.188Z,33.2
2022-12-11T00:16:53.900Z,33.2
2022-12-11T00:17:56.021Z,33.2
2022-12-11T00:18:57.591Z,33.3
2022-12-11T00:19:59.390Z,33.3
2022-12-11T00:21:01.292Z,33.3
2022-12-11T00:22:03.235Z,33.3
2022-12-11T00:23:05.080Z,33.3
2022-12-11T00:24:06.896Z,33.3
2022-12-11T00:25:09.538Z,33.3
2022-12-11T00:26:12.362Z,33.3
2022-12-11T00:27:14.228Z,33.3
2022-12-11T00:28:16.054Z,33.3
2022-12-11T00:29:17.660Z,33.3
2022-12-11T00:30:22.355Z,33.3
2022-12-11T00:31:24.246Z,33.3
2022-12-11T00:32:28.801Z,33.3
2022-12-11T00:33:38.926Z,33.3
2022-12-11T00:34:40.623Z,33.3
2022-12-11T00:35:42.426Z,33.3
2022-12-11T00:36:44.267Z,33.3
2022-12-11T00:37:46.174Z,33.3
2022-12-11T00:38:47.817Z,33.3
2022-12-11T00:39:49.613Z,33.3
2022-12-11T00:40:51.244Z,33.3
2022-12-11T00:41:53.113Z,33.3
2022-12-11T00:42:57.736Z,33.3
2022-12-11T00:43:59.547Z,33.3
2022-12-11T00:45:01.325Z,33.3
2022-12-11T00:46:03.223Z,33.3
2022-12-11T00:47:08.076Z,33.3
2022-12-11T00:48:09.841Z,33.3
2022-12-11T00:49:11.488Z,33.4
2022-12-11T00:50:15.818Z,33.4
2022-12-11T00:51:17.595Z,33.3
2022-12-11T00:52:19.525Z,33.3
2022-12-11T00:53:21.289Z,33.3
2022-12-11T00:54:22.956Z,33.3
2022-12-11T00:55:24.749Z,33.4
2022-12-11T00:56:26.589Z,33.4
2022-12-11T00:57:28.447Z,33.4
2022-12-11T00:58:30.190Z,33.3
2022-12-11T00:59:31.979Z,33.4
2022-12-11T01:00:33.688Z,33.4
2022-12-11T01:01:35.846Z,33.4
2022-12-11T01:02:38.123Z,33.4
2022-12-11T01:03:40.061Z,33.4
2022-12-11T01:04:41.807Z,33.4
2022-12-11T01:05:43.759Z,33.4
2022-12-11T01:06:45.598Z,33.4
2022-12-11T01:07:47.424Z,33.5
2022-12-11T01:08:49.271Z,33.4
2022-12-11T01:09:51.055Z,33.4
2022-12-11T01:10:52.911Z,33.5
2022-12-11T01:11:55.053Z,33.5
2022-12-11T01:12:56.800Z,33.4
2022-12-11T01:13:58.551Z,33.4
2022-12-11T01:15:00.298Z,33.4
2022-12-11T01:16:02.019Z,33.5
2022-12-11T01:17:04.082Z,33.5
2022-12-11T01:18:05.996Z,33.4
2022-12-11T01:19:07.697Z,33.4
2022-12-11T01:20:09.453Z,33.4
2022-12-11T01:21:11.249Z,33.5
2022-12-11T01:22:13.043Z,33.5
2022-12-11T01:23:14.817Z,33.4
2022-12-11T01:24:16.537Z,33.5
2022-12-11T01:25:18.287Z,33.5
2022-12-11T01:26:19.932Z,33.5
2022-12-11T01:27:21.557Z,33.5
2022-12-11T01:28:23.528Z,33.5
2022-12-11T01:29:25.276Z,33.5
2022-12-11T01:30:27.271Z,33.6
2022-12-11T01:31:29.355Z,33.5
2022-12-11T01:32:31.137Z,33.5
2022-12-11T01:33:32.991Z,33.5
2022-12-11T01:34:34.840Z,33.5
2022-12-11T01:35:36.594Z,33.5
2022-12-11T01:36:38.440Z,33.5
2022-12-11T01:37:40.500Z,33.5
2022-12-11T01:38:42.363Z,33.6
2022-12-11T01:39:44.093Z,33.5
2022-12-11T01:40:45.771Z,33.5
2022-12-11T01:41:47.580Z,33.6
2022-12-11T01:42:49.337Z,33.6
2022-12-11T01:43:51.074Z,33.6
2022-12-11T01:44:52.720Z,33.5
2022-12-11T01:45:54.543Z,33.6
2022-12-11T01:46:56.423Z,33.6
2022-12-11T01:47:58.167Z,33.6
2022-12-11T01:48:59.812Z,33.6
2022-12-11T01:50:01.461Z,33.6
2022-12-11T01:51:03.165Z,33.6
2022-12-11T01:52:04.895Z,33.6
2022-12-11T01:53:06.713Z,33.6
2022-12-11T01:54:08.541Z,33.7
2022-12-11T01:55:11.047Z,33.7
2022-12-11T01:56:13.594Z,33.7
2022-12-11T01:57:15.376Z,33.7
2022-12-11T01:58:17.116Z,33.7
2022-12-11T01:59:18.834Z,33.7
2022-12-11T02:00:21.688Z,33.7
2022-12-11T02:01:23.563Z,33.7
2022-12-11T02:02:25.785Z,33.7
2022-12-11T02:03:27.815Z,33.7
2022-12-11T02:04:29.505Z,33.7
2022-12-11T02:05:31.164Z,33.7
2022-12-11T02:06:32.904Z,33.8
2022-12-11T02:07:34.517Z,33.8
2022-12-11T02:08:36.503Z,33.7
2022-12-11T02:09:38.371Z,33.8
2022-12-11T02:10:40.090Z,33.8
2022-12-11T02:11:41.746Z,33.8
2022-12-11T02:12:43.486Z,33.8
2022-12-11T02:13:45.349Z,33.8
2022-12-11T02:14:47.003Z,33.8
2022-12-11T02:15:48.731Z,33.8
2022-12-11T02:16:50.373Z,33.6
2022-12-11T02:17:52.025Z,33.8
2022-12-11T02:18:53.777Z,33.8
2022-12-11T02:19:55.526Z,33.8
2022-12-11T02:20:57.172Z,33.8
2022-12-11T02:21:59.014Z,33.8
2022-12-11T02:23:00.759Z,33.8
2022-12-11T02:24:02.617Z,33.8
2022-12-11T02:25:04.493Z,33.7
2022-12-11T02:26:06.179Z,33.8
2022-12-11T02:27:08.067Z,33.8
2022-12-11T02:28:09.905Z,33.8
2022-12-11T02:29:14.633Z,33.9
2022-12-11T02:30:16.236Z,33.8
2022-12-11T02:31:18.165Z,33.8
2022-12-11T02:32:20.343Z,33.8
2022-12-11T02:33:22.329Z,33.9
2022-12-11T02:34:23.939Z,33.9
2022-12-11T02:35:25.668Z,33.9
2022-12-11T02:36:27.368Z,33.9
2022-12-11T02:37:29.122Z,33.9
2022-12-11T02:38:30.933Z,33.9
2022-12-11T02:39:32.972Z,33.9
2022-12-11T02:40:34.692Z,33.9
2022-12-11T02:41:36.451Z,33.9
2022-12-11T02:42:38.157Z,33.9
2022-12-11T02:43:39.802Z,33.9
2022-12-11T02:44:41.427Z,33.9
2022-12-11T02:45:43.428Z,34
2022-12-11T02:46:45.303Z,34
2022-12-11T02:47:47.206Z,33.9
2022-12-11T02:48:48.969Z,33.9
2022-12-11T02:49:50.910Z,33.9
2022-12-11T02:50:52.761Z,33.9
2022-12-11T02:51:54.581Z,33.9
2022-12-11T02:52:56.461Z,33.9
2022-12-11T02:53:58.204Z,33.9
2022-12-11T02:54:59.963Z,33.8
2022-12-11T02:56:01.727Z,33.8
2022-12-11T02:57:03.446Z,33.8
2022-12-11T02:58:05.195Z,33.9
2022-12-11T02:59:06.953Z,33.8
2022-12-11T03:00:08.698Z,33.8
2022-12-11T03:01:10.588Z,33.9
2022-12-11T03:02:12.601Z,33.8
2022-12-11T03:03:14.657Z,33.8
2022-12-11T03:04:16.401Z,33.9
2022-12-11T03:05:18.255Z,33.9
2022-12-11T03:06:20.102Z,33.8
2022-12-11T03:07:21.849Z,33.8
2022-12-11T03:08:23.736Z,33.8
2022-12-11T03:09:25.794Z,33.7
2022-12-11T03:10:27.543Z,33.8
2022-12-11T03:11:29.272Z,33.9
2022-12-11T03:12:30.988Z,33.9
2022-12-11T03:13:32.847Z,33.9
2022-12-11T03:14:34.435Z,33.9
2022-12-11T03:15:36.443Z,33.9
2022-12-11T03:16:38.246Z,33.9
2022-12-11T03:17:40.449Z,33.9
2022-12-11T03:18:42.203Z,33.9
2022-12-11T03:19:44.040Z,33.9
2022-12-11T03:20:45.787Z,33.8
2022-12-11T03:21:47.433Z,33.9
2022-12-11T03:22:49.022Z,33.9
2022-12-11T03:23:50.829Z,33.9
2022-12-11T03:24:52.442Z,33.9
2022-12-11T03:25:54.271Z,33.9
2022-12-11T03:26:57.817Z,33.8
2022-12-11T03:28:03.149Z,33.9
2022-12-11T03:29:04.895Z,33.9
2022-12-11T03:30:06.641Z,33.9
2022-12-11T03:31:08.535Z,33.9
2022-12-11T03:32:10.649Z,33.9
2022-12-11T03:33:12.607Z,33.8
2022-12-11T03:34:14.352Z,33.9
2022-12-11T03:35:16.457Z,33.9
2022-12-11T03:36:18.354Z,33.8
2022-12-11T03:37:20.109Z,33.9
2022-12-11T03:38:21.964Z,33.9
2022-12-11T03:39:23.697Z,33.8
2022-12-11T03:40:25.449Z,33.8
2022-12-11T03:41:27.420Z,33.8
2022-12-11T03:42:29.285Z,33.9
2022-12-11T03:43:30.997Z,33.9
2022-12-11T03:44:32.753Z,33.9
2022-12-11T03:45:34.554Z,34
2022-12-11T03:46:36.394Z,33.9
2022-12-11T03:47:38.190Z,33.9
2022-12-11T03:48:39.945Z,33.9
2022-12-11T03:49:41.582Z,34
2022-12-11T03:50:43.327Z,34
2022-12-11T03:51:45.112Z,34
2022-12-11T03:52:47.013Z,34
2022-12-11T03:53:48.884Z,34
2022-12-11T03:54:50.744Z,34
2022-12-11T03:55:52.583Z,34
2022-12-11T03:56:54.335Z,34
2022-12-11T03:57:56.205Z,34
2022-12-11T03:58:58.052Z,34
2022-12-11T03:59:59.991Z,33.9
2022-12-11T04:01:01.842Z,33.9
2022-12-11T04:02:03.811Z,34
2022-12-11T04:03:13.516Z,34
2022-12-11T04:04:16.505Z,34
2022-12-11T04:05:18.553Z,34
2022-12-11T04:06:20.452Z,33.9
2022-12-11T04:07:22.371Z,33.9
2022-12-11T04:08:24.362Z,33.9
2022-12-11T04:09:26.464Z,33.9
2022-12-11T04:10:28.110Z,33.9
2022-12-11T04:11:29.721Z,33.9
2022-12-11T04:12:31.718Z,34
2022-12-11T04:13:33.457Z,33.9
2022-12-11T04:14:35.308Z,34
2022-12-11T04:15:37.303Z,34
2022-12-11T04:16:39.270Z,33.9
2022-12-11T04:17:40.957Z,33.8
2022-12-11T04:18:42.601Z,33.9
2022-12-11T04:19:44.248Z,33.9
2022-12-11T04:20:45.994Z,33.8
2022-12-11T04:21:47.713Z,33.9
2022-12-11T04:22:49.599Z,33.8
2022-12-11T04:23:51.286Z,33.9
2022-12-11T04:24:55.885Z,33.9
2022-12-11T04:25:57.598Z,33.9
2022-12-11T04:26:59.351Z,33.9
2022-12-11T04:28:01.211Z,33.9
2022-12-11T04:29:03.173Z,33.9
2022-12-11T04:30:05.013Z,33.9
2022-12-11T04:31:06.913Z,33.9
2022-12-11T04:32:08.905Z,33.9
2022-12-11T04:33:10.655Z,33.9
2022-12-11T04:34:12.291Z,33.9
2022-12-11T04:35:14.151Z,33.9
2022-12-11T04:36:15.902Z,33.9
2022-12-11T04:37:17.637Z,33.9
2022-12-11T04:38:19.288Z,33.8
2022-12-11T04:39:21.145Z,33.8
2022-12-11T04:40:22.891Z,33.9
2022-12-11T04:41:24.631Z,33.9
2022-12-11T04:42:26.324Z,33.8
2022-12-11T04:43:28.126Z,33.8
2022-12-11T04:44:35.961Z,33.8
2022-12-11T04:45:37.683Z,33.8
2022-12-11T04:46:39.542Z,33.8
2022-12-11T04:47:41.586Z,33.7
2022-12-11T04:48:43.312Z,33.7
2022-12-11T04:49:45.070Z,33.8
2022-12-11T04:50:46.829Z,33.8
2022-12-11T04:51:48.660Z,33.9
2022-12-11T04:52:50.407Z,33.8
2022-12-11T04:53:52.053Z,33.9
2022-12-11T04:54:53.912Z,33.9
2022-12-11T04:55:55.549Z,33.9
2022-12-11T04:56:57.247Z,33.9
2022-12-11T04:57:58.897Z,33.8
2022-12-11T04:59:00.638Z,33.9
2022-12-11T05:00:02.443Z,33.9
2022-12-11T05:01:04.225Z,33.9
2022-12-11T05:02:06.066Z,33.9
2022-12-11T05:03:08.023Z,33.9
2022-12-11T05:04:10.043Z,33.9
2022-12-11T05:05:12.533Z,33.9
2022-12-11T05:06:15.528Z,33.9
2022-12-11T05:07:17.166Z,34
2022-12-11T05:08:19.008Z,33.9
2022-12-11T05:09:20.852Z,33.9
2022-12-11T05:10:22.686Z,33.9
2022-12-11T05:11:24.634Z,33.9
2022-12-11T05:12:26.423Z,33.9
2022-12-11T05:13:28.169Z,34
2022-12-11T05:14:29.979Z,34
2022-12-11T05:15:31.832Z,34.1
2022-12-11T05:16:34.213Z,34
2022-12-11T05:17:35.905Z,34
2022-12-11T05:18:37.895Z,34
2022-12-11T05:19:39.578Z,33.9
2022-12-11T05:20:41.391Z,33.9
2022-12-11T05:21:43.094Z,34
2022-12-11T05:22:44.869Z,34
2022-12-11T05:23:46.627Z,33.9
2022-12-11T05:24:48.344Z,33.9
2022-12-11T05:25:50.320Z,33.9
2022-12-11T05:26:51.973Z,33.9
2022-12-11T05:27:56.378Z,33.9
2022-12-11T05:28:58.176Z,33.9
2022-12-11T05:30:00.057Z,33.9
2022-12-11T05:31:02.188Z,33.9
2022-12-11T05:32:04.169Z,33.9
2022-12-11T05:33:05.936Z,33.8
2022-12-11T05:34:07.687Z,33.9
2022-12-11T05:35:10.133Z,33.8
2022-12-11T05:36:12.719Z,33.8
2022-12-11T05:37:14.580Z,33.8
2022-12-11T05:38:16.269Z,33.8
2022-12-11T05:39:18.162Z,33.8
2022-12-11T05:40:19.922Z,33.8
2022-12-11T05:41:21.763Z,33.8
2022-12-11T05:42:29.280Z,33.7
2022-12-11T05:43:31.112Z,33.7
2022-12-11T05:44:32.841Z,33.7
2022-12-11T05:45:34.592Z,33.7
2022-12-11T05:46:36.517Z,33.7
2022-12-11T05:47:38.573Z,33.6
2022-12-11T05:48:40.507Z,33.7
2022-12-11T05:49:42.194Z,33.6
2022-12-11T05:50:43.808Z,33.6
2022-12-11T05:51:48.454Z,33.7
2022-12-11T05:52:50.297Z,33.7
2022-12-11T05:53:52.000Z,33.6
2022-12-11T05:54:53.794Z,33.6
2022-12-11T05:55:55.754Z,33.5
2022-12-11T05:56:57.550Z,33.6
2022-12-11T05:57:59.191Z,33.5
2022-12-11T05:59:01.198Z,33.5
2022-12-11T06:00:02.854Z,33.5
2022-12-11T06:01:04.664Z,33.5
2022-12-11T06:02:06.725Z,33.5
2022-12-11T06:03:09.311Z,33.5
2022-12-11T06:04:11.579Z,33.5
2022-12-11T06:05:13.776Z,33.5
2022-12-11T06:06:15.658Z,33.5
2022-12-11T06:07:17.476Z,33.5
2022-12-11T06:08:19.320Z,33.4
2022-12-11T06:09:21.401Z,33.5
2022-12-11T06:10:23.184Z,33.4
2022-12-11T06:11:25.038Z,33.4
2022-12-11T06:12:26.788Z,33.4
2022-12-11T06:13:28.543Z,33.3
2022-12-11T06:14:30.394Z,33.4
2022-12-11T06:15:32.199Z,33.4
2022-12-11T06:16:34.279Z,33.3
2022-12-11T06:17:36.454Z,33.4
2022-12-11T06:18:38.220Z,33.4
2022-12-11T06:19:39.940Z,33.3
2022-12-11T06:20:41.791Z,33.3
2022-12-11T06:21:43.534Z,33.3
2022-12-11T06:22:45.254Z,33.3
2022-12-11T06:23:47.138Z,33.1
2022-12-11T06:24:48.847Z,33.1
2022-12-11T06:25:50.733Z,33.1
2022-12-11T06:26:52.686Z,33.1
2022-12-11T06:27:54.344Z,33.2
2022-12-11T06:28:56.293Z,33.2
2022-12-11T06:29:58.141Z,33.1
2022-12-11T06:30:59.988Z,33.1
2022-12-11T06:32:02.161Z,33
2022-12-11T06:33:04.395Z,33.1
2022-12-11T06:34:06.039Z,33
2022-12-11T06:35:07.970Z,33
2022-12-11T06:36:10.551Z,33
2022-12-11T06:37:12.318Z,33
2022-12-11T06:38:13.965Z,32.9
2022-12-11T06:39:18.772Z,33
2022-12-11T06:40:20.491Z,32.9
2022-12-11T06:41:22.271Z,32.9
2022-12-11T06:42:24.046Z,32.8
2022-12-11T06:43:25.771Z,32.8
2022-12-11T06:44:27.577Z,32.8
2022-12-11T06:45:29.524Z,32.8
2022-12-11T06:46:31.526Z,32.8
2022-12-11T06:47:33.476Z,32.9
2022-12-11T06:48:35.326Z,32.8
2022-12-11T06:49:37.102Z,32.8
2022-12-11T06:50:38.938Z,32.8
2022-12-11T06:51:40.779Z,32.8
2022-12-11T06:52:42.834Z,32.8
2022-12-11T06:53:44.640Z,32.8
2022-12-11T06:54:46.369Z,32.8
2022-12-11T06:55:48.182Z,32.7
2022-12-11T06:56:49.976Z,32.7
2022-12-11T06:57:52.184Z,32.7
2022-12-11T06:58:54.037Z,32.8
2022-12-11T06:59:55.769Z,32.8
2022-12-11T07:00:57.456Z,32.8
2022-12-11T07:01:59.536Z,32.7
2022-12-11T07:03:01.742Z,32.6
2022-12-11T07:04:03.591Z,32.6
2022-12-11T07:05:05.468Z,32.6
2022-12-11T07:06:07.293Z,32.5
2022-12-11T07:07:09.143Z,32.6
2022-12-11T07:08:11.056Z,32.6
2022-12-11T07:09:12.951Z,32.6
2022-12-11T07:10:14.683Z,32.6
2022-12-11T07:11:16.525Z,32.6
2022-12-11T07:12:18.177Z,32.5
2022-12-11T07:13:19.791Z,32.5
2022-12-11T07:14:21.573Z,32.5
2022-12-11T07:15:23.318Z,32.4
2022-12-11T07:16:25.313Z,32.5
2022-12-11T07:17:27.337Z,32.4
2022-12-11T07:18:29.183Z,32.4
2022-12-11T07:19:31.034Z,32.4
2022-12-11T07:20:32.845Z,32.3
2022-12-11T07:21:34.623Z,32.4
2022-12-11T07:22:43.172Z,32.3
2022-12-11T07:23:48.578Z,32.3
2022-12-11T07:24:50.415Z,32.3
2022-12-11T07:25:52.276Z,32.2
2022-12-11T07:26:54.002Z,32.2
2022-12-11T07:27:55.766Z,32.3
2022-12-11T07:28:57.612Z,32.3
2022-12-11T07:29:59.350Z,32.3
2022-12-11T07:31:01.218Z,32.3
2022-12-11T07:32:03.179Z,32.3
2022-12-11T07:33:05.338Z,32.3
2022-12-11T07:34:07.121Z,32.3
2022-12-11T07:35:09.643Z,32.3
2022-12-11T07:36:12.367Z,32.2
2022-12-11T07:37:14.131Z,32.3
2022-12-11T07:38:15.882Z,32.2
2022-12-11T07:39:17.563Z,32.2
2022-12-11T07:40:19.395Z,32.3
2022-12-11T07:41:21.051Z,32.2
2022-12-11T07:42:22.791Z,32.2
2022-12-11T07:43:24.535Z,32.3
2022-12-11T07:44:26.280Z,32.2
2022-12-11T07:45:28.299Z,32.2
2022-12-11T07:46:30.301Z,32.2
2022-12-11T07:47:32.114Z,32.3
2022-12-11T07:48:33.993Z,32.3
2022-12-11T07:49:38.963Z,32.3
2022-12-11T07:50:40.664Z,32.2
2022-12-11T07:51:42.427Z,32.2
2022-12-11T07:52:44.351Z,32.2
2022-12-11T07:53:46.210Z,32.2
2022-12-11T07:54:47.946Z,32.1
2022-12-11T07:55:49.603Z,32.2
2022-12-11T07:56:54.186Z,32.2
2022-12-11T07:57:56.067Z,32.2
2022-12-11T07:58:57.807Z,32.1
2022-12-11T07:59:59.510Z,32.1
2022-12-11T08:01:01.276Z,32.1
2022-12-11T08:02:03.286Z,32.1
2022-12-11T08:03:05.054Z,32
2022-12-11T08:04:06.766Z,32
2022-12-11T08:05:09.361Z,32
2022-12-11T08:06:12.404Z,31.9
2022-12-11T08:07:14.191Z,32
2022-12-11T08:08:16.027Z,32
2022-12-11T08:09:21.638Z,32
2022-12-11T08:10:23.485Z,32
2022-12-11T08:11:25.347Z,31.9
2022-12-11T08:12:27.197Z,32
2022-12-11T08:13:29.140Z,32
2022-12-11T08:14:30.892Z,32
2022-12-11T08:15:32.639Z,32
2022-12-11T08:16:34.614Z,32
2022-12-11T08:17:40.470Z,32
2022-12-11T08:18:42.273Z,32
2022-12-11T08:19:44.023Z,32
2022-12-11T08:20:45.784Z,32
2022-12-11T08:21:47.531Z,32
2022-12-11T08:22:50.173Z,32.1
2022-12-11T08:24:01.866Z,32
2022-12-11T08:25:03.717Z,32
2022-12-11T08:26:05.336Z,32
2022-12-11T08:27:07.120Z,32
2022-12-11T08:28:08.964Z,32
2022-12-11T08:29:10.815Z,32
2022-12-11T08:30:12.565Z,32
2022-12-11T08:31:14.717Z,32
2022-12-11T08:32:16.891Z,32
2022-12-11T08:33:18.680Z,32
2022-12-11T08:34:20.373Z,32.1
2022-12-11T08:35:22.114Z,32
2022-12-11T08:36:30.038Z,32.1
2022-12-11T08:37:31.879Z,32
2022-12-11T08:38:33.754Z,32.1
2022-12-11T08:39:35.558Z,32.1
2022-12-11T08:40:37.179Z,32.1
2022-12-11T08:41:38.925Z,32.1
2022-12-11T08:42:40.717Z,32.1
2022-12-11T08:43:42.559Z,32.1
2022-12-11T08:44:44.295Z,32.1
2022-12-11T08:45:46.079Z,32.1
2022-12-11T08:46:47.961Z,32.1
2022-12-11T08:47:49.859Z,32
2022-12-11T08:48:51.643Z,32.1
2022-12-11T08:49:56.527Z,32.1
2022-12-11T08:50:58.478Z,32.2
2022-12-11T08:52:00.282Z,32.1
2022-12-11T08:53:02.078Z,32.1
2022-12-11T08:54:03.942Z,32.1
2022-12-11T08:55:05.895Z,32.1
2022-12-11T08:56:07.629Z,32.1
2022-12-11T08:57:09.375Z,32.1
2022-12-11T08:58:11.117Z,32.1
2022-12-11T08:59:12.926Z,32.1
2022-12-11T09:00:14.592Z,32.1
2022-12-11T09:01:16.570Z,32.1
2022-12-11T09:02:18.513Z,32.1
2022-12-11T09:03:20.359Z,32.1
2022-12-11T09:04:22.000Z,32.2
2022-12-11T09:05:23.653Z,32.1
2022-12-11T09:06:25.406Z,32.1
2022-12-11T09:07:27.072Z,32.1
2022-12-11T09:08:29.040Z,32.2
2022-12-11T09:09:31.153Z,32.2
2022-12-11T09:10:33.009Z,32.2
2022-12-11T09:11:34.853Z,32.2
2022-12-11T09:12:36.543Z,32.1
2022-12-11T09:13:38.250Z,32.2
2022-12-11T09:14:40.107Z,32.2
2022-12-11T09:15:42.100Z,32.2
2022-12-11T09:16:44.100Z,32.2
2022-12-11T09:17:45.747Z,32.2
2022-12-11T09:18:47.374Z,32.1
2022-12-11T09:19:49.252Z,32.1
2022-12-11T09:20:50.913Z,32.1
2022-12-11T09:21:52.752Z,32.1
2022-12-11T09:22:54.492Z,32
2022-12-11T09:23:56.350Z,32.1
2022-12-11T09:24:58.222Z,32.1
2022-12-11T09:25:59.911Z,32.1
2022-12-11T09:27:01.754Z,32.1
2022-12-11T09:28:03.515Z,32.1
2022-12-11T09:29:05.279Z,32.1
2022-12-11T09:30:07.024Z,32.1
2022-12-11T09:31:09.002Z,32.1
2022-12-11T09:32:10.937Z,32.1
2022-12-11T09:33:12.789Z,32.1
2022-12-11T09:34:14.748Z,32.1
2022-12-11T09:35:16.577Z,32.2
2022-12-11T09:36:18.294Z,32.1
2022-12-11T09:37:20.196Z,32.2
2022-12-11T09:38:21.939Z,32.2
2022-12-11T09:39:23.876Z,32.2
2022-12-11T09:40:25.725Z,32.2
2022-12-11T09:41:27.485Z,32.2
2022-12-11T09:42:29.225Z,32.2
2022-12-11T09:43:30.978Z,32.2
2022-12-11T09:44:32.603Z,32.2
2022-12-11T09:45:34.441Z,32.1
2022-12-11T09:46:36.489Z,32.2
2022-12-11T09:47:38.591Z,32.2
2022-12-11T09:48:40.331Z,32.2
2022-12-11T09:49:42.184Z,32.3
2022-12-11T09:50:43.920Z,32.3
2022-12-11T09:51:45.790Z,32.3
2022-12-11T09:52:47.628Z,32.2
2022-12-11T09:53:49.478Z,32.3
2022-12-11T09:54:51.439Z,32.3
2022-12-11T09:55:53.193Z,32.3
2022-12-11T09:56:55.123Z,32.3
2022-12-11T09:57:59.561Z,32.3
2022-12-11T09:59:01.244Z,32.2
2022-12-11T10:00:05.953Z,32.3
2022-12-11T10:01:07.987Z,32.3
2022-12-11T10:02:10.194Z,32.3
2022-12-11T10:03:12.182Z,32.3
2022-12-11T10:04:13.877Z,32.3
2022-12-11T10:05:15.655Z,32.4
2022-12-11T10:06:17.277Z,32.4
2022-12-11T10:07:19.031Z,32.4
2022-12-11T10:08:20.871Z,32.4
2022-12-11T10:09:22.764Z,32.4
2022-12-11T10:10:24.607Z,32.5
2022-12-11T10:11:26.321Z,32.4
2022-12-11T10:12:28.069Z,32.5
2022-12-11T10:13:29.840Z,32.5
2022-12-11T10:14:31.788Z,32.4
2022-12-11T10:15:33.992Z,32.4
2022-12-11T10:16:35.901Z,32.4
2022-12-11T10:17:37.563Z,32.3
2022-12-11T10:18:39.296Z,32.4
2022-12-11T10:19:41.151Z,32.4
2022-12-11T10:20:43.020Z,32.4
2022-12-11T10:21:44.763Z,32.4
2022-12-11T10:22:46.495Z,32.4
2022-12-11T10:23:48.224Z,32.4
2022-12-11T10:25:20.101Z,32.4
2022-12-11T10:26:21.952Z,32.3
2022-12-11T10:27:23.820Z,32.4
2022-12-11T10:28:25.619Z,32.4
2022-12-11T10:29:27.410Z,32.5
2022-12-11T10:30:34.775Z,32.4
2022-12-11T10:31:36.747Z,32.5
2022-12-11T10:32:38.994Z,32.6
2022-12-11T10:33:40.738Z,32.5
2022-12-11T10:34:42.355Z,32.6
2022-12-11T10:35:44.244Z,32.6
2022-12-11T10:36:46.914Z,32.6
2022-12-11T10:37:48.658Z,32.6
2022-12-11T10:38:50.363Z,32.6
2022-12-11T10:39:52.162Z,32.5
2022-12-11T10:40:53.891Z,32.6
2022-12-11T10:41:55.853Z,32.6
2022-12-11T10:42:57.626Z,32.6
2022-12-11T10:43:59.239Z,32.6
2022-12-11T10:45:01.025Z,32.6
2022-12-11T10:46:02.888Z,32.6
2022-12-11T10:47:04.797Z,32.7
2022-12-11T10:48:06.636Z,32.7
2022-12-11T10:49:08.285Z,32.6
2022-12-11T10:50:10.185Z,32.6
2022-12-11T10:51:11.980Z,32.6
2022-12-11T10:52:13.856Z,32.5
2022-12-11T10:53:15.584Z,32.6
2022-12-11T10:54:17.431Z,32.6
2022-12-11T10:55:19.381Z,32.6
2022-12-11T10:56:21.328Z,32.6
2022-12-11T10:57:23.089Z,32.6
2022-12-11T10:58:24.863Z,32.6
2022-12-11T10:59:26.679Z,32.7
2022-12-11T11:00:28.627Z,32.6
2022-12-11T11:01:30.457Z,32.6
2022-12-11T11:02:32.784Z,32.7
2022-12-11T11:03:34.972Z,32.6
2022-12-11T11:04:36.743Z,32.6
2022-12-11T11:05:38.491Z,32.6
2022-12-11T11:06:40.251Z,32.6
2022-12-11T11:07:42.114Z,32.7
2022-12-11T11:08:43.845Z,32.7
2022-12-11T11:09:45.582Z,32.7
2022-12-11T11:10:47.243Z,32.7
2022-12-11T11:11:52.254Z,32.8
2022-12-11T11:12:54.111Z,32.8
2022-12-11T11:13:55.886Z,32.7
2022-12-11T11:14:57.711Z,32.7
2022-12-11T11:15:59.589Z,32.8
2022-12-11T11:17:01.535Z,32.8
2022-12-11T11:18:03.253Z,32.8
2022-12-11T11:19:04.882Z,32.9
2022-12-11T11:20:06.616Z,32.9
2022-12-11T11:21:08.399Z,32.8
2022-12-11T11:22:10.144Z,32.9
2022-12-11T11:23:11.886Z,32.9
2022-12-11T11:24:13.655Z,33
2022-12-11T11:25:15.350Z,33
2022-12-11T11:26:17.344Z,33
2022-12-11T11:27:19.132Z,33
2022-12-11T11:28:24.001Z,33
2022-12-11T11:29:25.681Z,33
2022-12-11T11:30:27.503Z,33
2022-12-11T11:31:29.585Z,33
2022-12-11T11:32:31.820Z,33
2022-12-11T11:33:33.566Z,33
2022-12-11T11:34:35.317Z,33
2022-12-11T11:35:44.195Z,33
2022-12-11T11:36:47.822Z,33
2022-12-11T11:37:49.513Z,33
2022-12-11T11:38:51.205Z,33
2022-12-11T11:39:52.972Z,33
2022-12-11T11:41:05.786Z,33
2022-12-11T11:42:16.832Z,33
2022-12-11T11:43:18.572Z,33
2022-12-11T11:44:20.430Z,33
2022-12-11T11:45:22.222Z,33
2022-12-11T11:46:24.057Z,33
2022-12-11T11:47:26.177Z,33
2022-12-11T11:48:27.928Z,33
2022-12-11T11:49:35.403Z,33
2022-12-11T11:50:37.170Z,33
2022-12-11T11:51:38.917Z,33.1
2022-12-11T11:52:40.657Z,33.1
2022-12-11T11:53:42.402Z,33.1
2022-12-11T11:54:44.155Z,33.1
2022-12-11T11:55:45.860Z,33.1
2022-12-11T11:56:47.560Z,33.1
2022-12-11T11:57:49.298Z,33.1
2022-12-11T11:58:51.257Z,33.1
2022-12-11T11:59:53.098Z,33.2
2022-12-11T12:00:54.872Z,33.1
2022-12-11T12:01:56.698Z,33.1
2022-12-11T12:02:58.580Z,33.2
2022-12-11T12:04:03.357Z,33.1
2022-12-11T12:05:04.999Z,33.2
2022-12-11T12:06:10.919Z,33.2
2022-12-11T12:07:17.042Z,33.2
2022-12-11T12:08:19.135Z,33.1
2022-12-11T12:09:21.392Z,33.1
2022-12-11T12:10:23.316Z,33.2
2022-12-11T12:11:24.947Z,33.2
2022-12-11T12:12:34.092Z,33.3
2022-12-11T12:13:51.275Z,33.2
2022-12-11T12:14:54.211Z,33.2
2022-12-11T12:15:56.174Z,33.2
2022-12-11T12:16:58.222Z,33
2022-12-11T12:18:00.386Z,33.2
2022-12-11T12:19:02.125Z,33.1
2022-12-11T12:20:03.883Z,33.1
2022-12-11T12:21:05.617Z,33.1
2022-12-11T12:22:07.243Z,33.2
2022-12-11T12:23:09.125Z,33.2
2022-12-11T12:24:10.841Z,33.2
2022-12-11T12:25:13.495Z,33.2
2022-12-11T12:26:15.945Z,33.2
2022-12-11T12:27:52.339Z,33.2
2022-12-11T12:28:55.190Z,33.2
2022-12-11T12:29:57.039Z,33.2
2022-12-11T12:30:58.836Z,33.2
2022-12-11T12:32:00.852Z,33.2
2022-12-11T12:33:02.665Z,33.2
2022-12-11T12:34:04.376Z,33.1
2022-12-11T12:35:06.233Z,33.2
2022-12-11T12:36:07.878Z,33.2
2022-12-11T12:37:09.519Z,33.2
2022-12-11T12:38:11.272Z,33.2
2022-12-11T12:39:12.964Z,33.3
2022-12-11T12:40:14.761Z,33.3
2022-12-11T12:41:16.510Z,33.4
2022-12-11T12:42:21.047Z,33.4
2022-12-11T12:43:22.776Z,33.3
2022-12-11T12:44:24.824Z,33.4
2022-12-11T12:45:27.092Z,33.3
2022-12-11T12:46:29.041Z,33.4
2022-12-11T12:47:30.819Z,33.3
2022-12-11T12:48:32.755Z,33.3
2022-12-11T12:49:34.461Z,33.4
2022-12-11T12:50:36.313Z,33.4
2022-12-11T12:51:38.087Z,33.4
2022-12-11T12:52:39.725Z,33.4
2022-12-11T12:53:41.585Z,33.4
2022-12-11T12:54:43.441Z,33.5
2022-12-11T12:55:45.123Z,33.5
2022-12-11T12:56:46.758Z,33.5
2022-12-11T12:57:48.565Z,33.6
2022-12-11T12:58:50.270Z,33.6
2022-12-11T12:59:52.086Z,33.6
2022-12-11T13:00:54.037Z,33.6
2022-12-11T13:01:56.085Z,33.7
2022-12-11T13:02:58.122Z,33.6
2022-12-11T13:03:59.957Z,33.6
2022-12-11T13:05:01.766Z,33.7
2022-12-11T13:06:03.522Z,33.7
2022-12-11T13:07:05.317Z,33.7
2022-12-11T13:08:07.188Z,33.7
2022-12-11T13:09:09.062Z,33.7
2022-12-11T13:10:10.737Z,33.7
2022-12-11T13:11:12.616Z,33.7
2022-12-11T13:12:14.369Z,33.7
2022-12-11T13:13:16.221Z,33.7
2022-12-11T13:14:18.009Z,33.8
2022-12-11T13:15:19.820Z,33.9
2022-12-11T13:16:21.709Z,33.9
2022-12-11T13:17:23.712Z,33.9
2022-12-11T13:18:25.463Z,33.8
2022-12-11T13:19:27.351Z,33.9
2022-12-11T13:20:29.167Z,33.9
2022-12-11T13:21:31.010Z,33.9
2022-12-11T13:22:32.762Z,33.9
2022-12-11T13:23:34.514Z,33.9
2022-12-11T13:24:36.262Z,33.9
2022-12-11T13:25:41.898Z,34
2022-12-11T13:26:43.513Z,34
2022-12-11T13:27:45.299Z,34
2022-12-11T13:28:47.134Z,34
2022-12-11T13:29:48.752Z,34
2022-12-11T13:30:57.412Z,34
2022-12-11T13:31:59.369Z,34
2022-12-11T13:33:01.405Z,34
2022-12-11T13:34:03.063Z,34
2022-12-11T13:35:04.817Z,34
2022-12-11T13:36:16.853Z,34
2022-12-11T13:37:26.721Z,34
2022-12-11T13:38:28.463Z,34
2022-12-11T13:39:30.219Z,34
2022-12-11T13:40:32.073Z,34
2022-12-11T13:41:33.912Z,34.1
2022-12-11T13:42:35.671Z,34.1
2022-12-11T13:43:37.409Z,34.1
2022-12-11T13:44:39.256Z,34.1
2022-12-11T13:45:41.160Z,34.1
2022-12-11T13:46:43.059Z,34.2
2022-12-11T13:47:44.909Z,34.1
2022-12-11T13:48:46.659Z,34.2
2022-12-11T13:49:48.516Z,34.2
2022-12-11T13:50:50.277Z,34.2
2022-12-11T13:51:52.010Z,34.1
2022-12-11T13:52:53.700Z,34.2
2022-12-11T13:53:55.394Z,34.2
2022-12-11T13:54:57.248Z,34.2